sensor_id;sensor_type;location;lat;lon;timestamp;P1;durP1;ratioP1;P2;durP2;ratioP2
24685;SDS011;12804;51.176;4.452;2022-10-22T00:00:10;9.30;;;3.20;;
24685;SDS011;12804;51.176;4.452;2022-10-22T00:02:38;10.15;;;3.45;;
24685;SDS011;12804;51.176;4.452;2022-10-22T00:05:04;11.32;;;3.80;;
24685;SDS011;12804;51.176;4.452;2022-10-22T00:07:30;11.77;;;3.70;;
24685;SDS011;12804;51.176;4.452;2022-10-22T00:09:56;18.27;;;3.45;;
24685;SDS011;12804;51.176;4.452;2022-10-22T00:12:22;9.85;;;3.50;;
24685;SDS011;12804;51.176;4.452;2022-10-22T00:14:48;9.68;;;3.50;;
24685;SDS011;12804;51.176;4.452;2022-10-22T00:17:15;9.50;;;3.60;;
24685;SDS011;12804;51.176;4.452;2022-10-22T00:19:42;9.50;;;3.47;;
24685;SDS011;12804;51.176;4.452;2022-10-22T00:22:08;12.20;;;3.30;;
24685;SDS011;12804;51.176;4.452;2022-10-22T00:24:34;8.23;;;3.20;;
24685;SDS011;12804;51.176;4.452;2022-10-22T00:27:02;7.45;;;2.95;;
24685;SDS011;12804;51.176;4.452;2022-10-22T00:29:29;12.27;;;3.45;;
24685;SDS011;12804;51.176;4.452;2022-10-22T00:31:55;8.55;;;2.92;;
24685;SDS011;12804;51.176;4.452;2022-10-22T00:34:21;8.70;;;3.10;;
24685;SDS011;12804;51.176;4.452;2022-10-22T00:36:47;6.22;;;2.78;;
24685;SDS011;12804;51.176;4.452;2022-10-22T00:39:15;7.22;;;2.75;;
24685;SDS011;12804;51.176;4.452;2022-10-22T00:41:43;7.88;;;3.17;;
24685;SDS011;12804;51.176;4.452;2022-10-22T00:47:14;8.15;;;2.85;;
24685;SDS011;12804;51.176;4.452;2022-10-22T00:49:41;9.10;;;3.35;;
24685;SDS011;12804;51.176;4.452;2022-10-22T00:52:09;9.23;;;3.00;;
24685;SDS011;12804;51.176;4.452;2022-10-22T00:54:35;11.07;;;2.70;;
24685;SDS011;12804;51.176;4.452;2022-10-22T00:57:03;9.48;;;3.05;;
24685;SDS011;12804;51.176;4.452;2022-10-22T00:59:28;7.53;;;2.88;;
24685;SDS011;12804;51.176;4.452;2022-10-22T01:01:55;9.40;;;3.08;;
24685;SDS011;12804;51.176;4.452;2022-10-22T01:04:21;8.02;;;2.53;;
24685;SDS011;12804;51.176;4.452;2022-10-22T01:06:47;6.60;;;2.60;;
24685;SDS011;12804;51.176;4.452;2022-10-22T01:17:22;6.60;;;2.67;;
24685;SDS011;12804;51.176;4.452;2022-10-22T01:19:58;12.30;;;3.75;;
24685;SDS011;12804;51.176;4.452;2022-10-22T01:22:39;8.00;;;2.88;;
24685;SDS011;12804;51.176;4.452;2022-10-22T01:25:27;12.40;;;3.00;;
24685;SDS011;12804;51.176;4.452;2022-10-22T01:30:59;11.10;;;2.80;;
24685;SDS011;12804;51.176;4.452;2022-10-22T01:33:27;5.50;;;2.60;;
24685;SDS011;12804;51.176;4.452;2022-10-22T01:35:55;10.77;;;2.90;;
24685;SDS011;12804;51.176;4.452;2022-10-22T01:38:24;6.13;;;2.53;;
24685;SDS011;12804;51.176;4.452;2022-10-22T01:40:51;9.73;;;2.55;;
24685;SDS011;12804;51.176;4.452;2022-10-22T01:43:21;8.00;;;2.40;;
24685;SDS011;12804;51.176;4.452;2022-10-22T01:45:50;5.93;;;2.40;;
24685;SDS011;12804;51.176;4.452;2022-10-22T01:53:55;13.52;;;2.78;;
24685;SDS011;12804;51.176;4.452;2022-10-22T01:56:29;7.25;;;2.28;;
24685;SDS011;12804;51.176;4.452;2022-10-22T02:02:03;7.32;;;2.80;;
24685;SDS011;12804;51.176;4.452;2022-10-22T02:04:40;7.30;;;2.53;;
24685;SDS011;12804;51.176;4.452;2022-10-22T02:09:35;5.57;;;2.40;;
24685;SDS011;12804;51.176;4.452;2022-10-22T02:12:03;8.68;;;3.00;;
24685;SDS011;12804;51.176;4.452;2022-10-22T02:14:32;6.72;;;2.72;;
24685;SDS011;12804;51.176;4.452;2022-10-22T02:17:00;10.13;;;2.65;;
24685;SDS011;12804;51.176;4.452;2022-10-22T02:19:35;9.30;;;2.50;;
24685;SDS011;12804;51.176;4.452;2022-10-22T02:22:03;8.68;;;2.50;;
24685;SDS011;12804;51.176;4.452;2022-10-22T02:24:29;14.38;;;2.83;;
24685;SDS011;12804;51.176;4.452;2022-10-22T02:29:45;9.27;;;2.08;;
24685;SDS011;12804;51.176;4.452;2022-10-22T02:32:20;8.43;;;2.05;;
24685;SDS011;12804;51.176;4.452;2022-10-22T02:34:50;6.43;;;2.35;;
24685;SDS011;12804;51.176;4.452;2022-10-22T02:37:19;5.00;;;2.10;;
24685;SDS011;12804;51.176;4.452;2022-10-22T02:39:46;10.55;;;2.30;;
24685;SDS011;12804;51.176;4.452;2022-10-22T02:42:13;8.90;;;2.38;;
24685;SDS011;12804;51.176;4.452;2022-10-22T02:44:39;7.72;;;2.35;;
24685;SDS011;12804;51.176;4.452;2022-10-22T02:47:04;6.20;;;2.22;;
24685;SDS011;12804;51.176;4.452;2022-10-22T02:49:30;8.27;;;2.08;;
24685;SDS011;12804;51.176;4.452;2022-10-22T02:51:56;6.78;;;2.25;;
24685;SDS011;12804;51.176;4.452;2022-10-22T02:54:22;7.03;;;2.05;;
24685;SDS011;12804;51.176;4.452;2022-10-22T02:56:48;9.07;;;2.13;;
24685;SDS011;12804;51.176;4.452;2022-10-22T02:59:14;9.15;;;2.10;;
24685;SDS011;12804;51.176;4.452;2022-10-22T03:01:40;8.25;;;2.00;;
24685;SDS011;12804;51.176;4.452;2022-10-22T03:04:05;12.73;;;2.50;;
24685;SDS011;12804;51.176;4.452;2022-10-22T03:06:31;9.00;;;2.20;;
24685;SDS011;12804;51.176;4.452;2022-10-22T03:08:57;8.02;;;2.38;;
24685;SDS011;12804;51.176;4.452;2022-10-22T03:11:23;9.52;;;2.53;;
24685;SDS011;12804;51.176;4.452;2022-10-22T03:13:48;8.10;;;2.42;;
24685;SDS011;12804;51.176;4.452;2022-10-22T03:16:14;5.20;;;2.20;;
24685;SDS011;12804;51.176;4.452;2022-10-22T03:18:40;7.13;;;2.00;;
24685;SDS011;12804;51.176;4.452;2022-10-22T03:21:08;4.10;;;1.75;;
24685;SDS011;12804;51.176;4.452;2022-10-22T03:23:37;6.63;;;1.95;;
24685;SDS011;12804;51.176;4.452;2022-10-22T03:26:04;7.00;;;2.00;;
24685;SDS011;12804;51.176;4.452;2022-10-22T03:28:33;9.20;;;1.98;;
24685;SDS011;12804;51.176;4.452;2022-10-22T03:30:59;7.10;;;1.73;;
24685;SDS011;12804;51.176;4.452;2022-10-22T03:33:25;8.02;;;2.10;;
24685;SDS011;12804;51.176;4.452;2022-10-22T03:35:51;9.23;;;2.10;;
24685;SDS011;12804;51.176;4.452;2022-10-22T03:38:16;8.18;;;1.90;;
24685;SDS011;12804;51.176;4.452;2022-10-22T03:40:42;7.50;;;2.00;;
24685;SDS011;12804;51.176;4.452;2022-10-22T03:43:10;9.52;;;1.90;;
24685;SDS011;12804;51.176;4.452;2022-10-22T03:45:36;7.22;;;1.90;;
24685;SDS011;12804;51.176;4.452;2022-10-22T03:48:02;9.40;;;1.98;;
24685;SDS011;12804;51.176;4.452;2022-10-22T03:50:28;5.60;;;1.85;;
24685;SDS011;12804;51.176;4.452;2022-10-22T03:52:54;5.47;;;1.52;;
24685;SDS011;12804;51.176;4.452;2022-10-22T03:55:19;7.35;;;2.10;;
24685;SDS011;12804;51.176;4.452;2022-10-22T03:57:45;9.75;;;1.90;;
24685;SDS011;12804;51.176;4.452;2022-10-22T04:00:11;7.13;;;1.60;;
24685;SDS011;12804;51.176;4.452;2022-10-22T04:02:37;4.97;;;1.40;;
24685;SDS011;12804;51.176;4.452;2022-10-22T04:05:03;8.57;;;1.88;;
24685;SDS011;12804;51.176;4.452;2022-10-22T04:07:29;5.25;;;1.58;;
24685;SDS011;12804;51.176;4.452;2022-10-22T04:09:54;8.18;;;1.70;;
24685;SDS011;12804;51.176;4.452;2022-10-22T04:12:20;8.30;;;1.60;;
24685;SDS011;12804;51.176;4.452;2022-10-22T04:14:46;14.32;;;1.88;;
24685;SDS011;12804;51.176;4.452;2022-10-22T04:17:12;3.72;;;1.50;;
24685;SDS011;12804;51.176;4.452;2022-10-22T04:19:38;4.90;;;1.55;;
24685;SDS011;12804;51.176;4.452;2022-10-22T04:22:03;7.53;;;1.70;;
24685;SDS011;12804;51.176;4.452;2022-10-22T04:24:30;8.27;;;1.80;;
24685;SDS011;12804;51.176;4.452;2022-10-22T04:26:56;9.82;;;1.65;;
24685;SDS011;12804;51.176;4.452;2022-10-22T04:29:22;9.15;;;1.98;;
24685;SDS011;12804;51.176;4.452;2022-10-22T04:31:49;9.68;;;1.40;;
24685;SDS011;12804;51.176;4.452;2022-10-22T04:34:15;8.65;;;1.83;;
24685;SDS011;12804;51.176;4.452;2022-10-22T04:36:41;8.40;;;1.70;;
24685;SDS011;12804;51.176;4.452;2022-10-22T04:39:06;8.90;;;1.70;;
24685;SDS011;12804;51.176;4.452;2022-10-22T04:41:33;8.43;;;1.48;;
24685;SDS011;12804;51.176;4.452;2022-10-22T04:44:00;10.98;;;1.67;;
24685;SDS011;12804;51.176;4.452;2022-10-22T04:46:28;6.60;;;1.60;;
24685;SDS011;12804;51.176;4.452;2022-10-22T04:48:55;7.03;;;1.30;;
24685;SDS011;12804;51.176;4.452;2022-10-22T04:51:22;14.15;;;1.73;;
24685;SDS011;12804;51.176;4.452;2022-10-22T04:53:50;12.05;;;1.83;;
24685;SDS011;12804;51.176;4.452;2022-10-22T04:56:20;8.60;;;1.90;;
24685;SDS011;12804;51.176;4.452;2022-10-22T04:58:51;5.93;;;1.45;;
24685;SDS011;12804;51.176;4.452;2022-10-22T05:01:20;9.63;;;1.52;;
24685;SDS011;12804;51.176;4.452;2022-10-22T05:03:48;4.90;;;1.40;;
24685;SDS011;12804;51.176;4.452;2022-10-22T05:06:15;6.40;;;1.60;;
24685;SDS011;12804;51.176;4.452;2022-10-22T05:08:41;9.60;;;1.85;;
24685;SDS011;12804;51.176;4.452;2022-10-22T05:11:15;11.43;;;1.52;;
24685;SDS011;12804;51.176;4.452;2022-10-22T05:13:43;5.53;;;1.23;;
24685;SDS011;12804;51.176;4.452;2022-10-22T05:16:09;11.82;;;2.08;;
24685;SDS011;12804;51.176;4.452;2022-10-22T05:18:36;5.95;;;1.60;;
24685;SDS011;12804;51.176;4.452;2022-10-22T05:21:03;8.55;;;1.63;;
24685;SDS011;12804;51.176;4.452;2022-10-22T05:23:32;8.27;;;1.85;;
24685;SDS011;12804;51.176;4.452;2022-10-22T05:26:02;9.93;;;1.58;;
24685;SDS011;12804;51.176;4.452;2022-10-22T05:28:28;10.32;;;1.73;;
24685;SDS011;12804;51.176;4.452;2022-10-22T05:30:55;7.47;;;1.50;;
24685;SDS011;12804;51.176;4.452;2022-10-22T05:33:22;4.65;;;2.03;;
24685;SDS011;12804;51.176;4.452;2022-10-22T05:35:49;7.97;;;1.73;;
24685;SDS011;12804;51.176;4.452;2022-10-22T05:38:15;8.73;;;1.50;;
24685;SDS011;12804;51.176;4.452;2022-10-22T05:40:41;11.15;;;1.77;;
24685;SDS011;12804;51.176;4.452;2022-10-22T05:43:07;9.50;;;2.05;;
24685;SDS011;12804;51.176;4.452;2022-10-22T05:45:36;7.28;;;1.60;;
24685;SDS011;12804;51.176;4.452;2022-10-22T05:48:03;12.07;;;2.00;;
24685;SDS011;12804;51.176;4.452;2022-10-22T05:50:29;10.00;;;1.70;;
24685;SDS011;12804;51.176;4.452;2022-10-22T05:52:55;7.05;;;1.60;;
24685;SDS011;12804;51.176;4.452;2022-10-22T05:55:21;8.05;;;1.80;;
24685;SDS011;12804;51.176;4.452;2022-10-22T05:57:47;6.72;;;1.58;;
24685;SDS011;12804;51.176;4.452;2022-10-22T06:00:14;7.13;;;1.50;;
24685;SDS011;12804;51.176;4.452;2022-10-22T06:02:41;6.63;;;1.58;;
24685;SDS011;12804;51.176;4.452;2022-10-22T06:05:07;10.05;;;1.65;;
24685;SDS011;12804;51.176;4.452;2022-10-22T06:07:33;11.98;;;2.05;;
24685;SDS011;12804;51.176;4.452;2022-10-22T06:10:00;9.73;;;1.60;;
24685;SDS011;12804;51.176;4.452;2022-10-22T06:12:26;6.85;;;1.40;;
24685;SDS011;12804;51.176;4.452;2022-10-22T06:14:52;8.07;;;1.90;;
24685;SDS011;12804;51.176;4.452;2022-10-22T06:17:18;12.25;;;2.08;;
24685;SDS011;12804;51.176;4.452;2022-10-22T06:19:44;7.95;;;1.70;;
24685;SDS011;12804;51.176;4.452;2022-10-22T06:22:10;7.55;;;1.70;;
24685;SDS011;12804;51.176;4.452;2022-10-22T06:24:36;8.00;;;1.70;;
24685;SDS011;12804;51.176;4.452;2022-10-22T06:27:02;8.60;;;1.92;;
24685;SDS011;12804;51.176;4.452;2022-10-22T06:29:27;7.55;;;1.58;;
24685;SDS011;12804;51.176;4.452;2022-10-22T06:31:53;7.22;;;1.70;;
24685;SDS011;12804;51.176;4.452;2022-10-22T06:34:19;8.93;;;2.00;;
24685;SDS011;12804;51.176;4.452;2022-10-22T06:36:48;8.35;;;1.80;;
24685;SDS011;12804;51.176;4.452;2022-10-22T06:39:16;11.00;;;1.77;;
24685;SDS011;12804;51.176;4.452;2022-10-22T06:41:42;8.73;;;1.83;;
24685;SDS011;12804;51.176;4.452;2022-10-22T06:44:11;8.13;;;1.42;;
24685;SDS011;12804;51.176;4.452;2022-10-22T06:46:39;8.75;;;1.58;;
24685;SDS011;12804;51.176;4.452;2022-10-22T06:49:04;8.32;;;1.67;;
24685;SDS011;12804;51.176;4.452;2022-10-22T06:51:30;8.45;;;1.60;;
24685;SDS011;12804;51.176;4.452;2022-10-22T06:53:57;6.82;;;1.65;;
24685;SDS011;12804;51.176;4.452;2022-10-22T06:56:26;6.00;;;1.10;;
24685;SDS011;12804;51.176;4.452;2022-10-22T06:58:54;6.95;;;1.95;;
24685;SDS011;12804;51.176;4.452;2022-10-22T07:01:23;12.57;;;1.90;;
24685;SDS011;12804;51.176;4.452;2022-10-22T07:03:50;7.15;;;1.45;;
24685;SDS011;12804;51.176;4.452;2022-10-22T07:06:17;7.95;;;1.50;;
24685;SDS011;12804;51.176;4.452;2022-10-22T07:08:43;10.57;;;1.60;;
24685;SDS011;12804;51.176;4.452;2022-10-22T07:11:10;10.00;;;1.80;;
24685;SDS011;12804;51.176;4.452;2022-10-22T07:13:41;9.38;;;1.23;;
24685;SDS011;12804;51.176;4.452;2022-10-22T07:16:07;6.78;;;1.60;;
24685;SDS011;12804;51.176;4.452;2022-10-22T07:18:34;5.40;;;1.25;;
24685;SDS011;12804;51.176;4.452;2022-10-22T07:21:01;6.85;;;1.33;;
24685;SDS011;12804;51.176;4.452;2022-10-22T07:23:27;4.38;;;1.40;;
24685;SDS011;12804;51.176;4.452;2022-10-22T07:25:53;7.68;;;1.48;;
24685;SDS011;12804;51.176;4.452;2022-10-22T07:28:19;11.32;;;1.50;;
24685;SDS011;12804;51.176;4.452;2022-10-22T07:30:45;8.35;;;1.58;;
24685;SDS011;12804;51.176;4.452;2022-10-22T07:33:11;11.23;;;1.80;;
24685;SDS011;12804;51.176;4.452;2022-10-22T07:35:38;10.38;;;2.05;;
24685;SDS011;12804;51.176;4.452;2022-10-22T07:38:05;6.30;;;1.90;;
24685;SDS011;12804;51.176;4.452;2022-10-22T07:40:32;5.60;;;1.38;;
24685;SDS011;12804;51.176;4.452;2022-10-22T07:42:58;7.30;;;1.83;;
24685;SDS011;12804;51.176;4.452;2022-10-22T07:45:24;4.78;;;1.73;;
24685;SDS011;12804;51.176;4.452;2022-10-22T07:47:50;9.27;;;2.00;;
24685;SDS011;12804;51.176;4.452;2022-10-22T07:50:16;11.85;;;1.98;;
24685;SDS011;12804;51.176;4.452;2022-10-22T07:52:42;12.32;;;1.92;;
24685;SDS011;12804;51.176;4.452;2022-10-22T07:55:08;9.18;;;1.92;;
24685;SDS011;12804;51.176;4.452;2022-10-22T07:57:34;7.72;;;1.50;;
24685;SDS011;12804;51.176;4.452;2022-10-22T08:00:06;12.25;;;2.00;;
24685;SDS011;12804;51.176;4.452;2022-10-22T08:02:37;9.77;;;1.65;;
24685;SDS011;12804;51.176;4.452;2022-10-22T08:05:03;13.75;;;2.10;;
24685;SDS011;12804;51.176;4.452;2022-10-22T08:07:29;7.72;;;2.05;;
24685;SDS011;12804;51.176;4.452;2022-10-22T08:09:55;8.40;;;1.70;;
24685;SDS011;12804;51.176;4.452;2022-10-22T08:12:21;9.15;;;1.50;;
24685;SDS011;12804;51.176;4.452;2022-10-22T08:14:46;9.25;;;1.30;;
24685;SDS011;12804;51.176;4.452;2022-10-22T08:17:12;8.05;;;1.60;;
24685;SDS011;12804;51.176;4.452;2022-10-22T08:19:38;7.70;;;1.65;;
24685;SDS011;12804;51.176;4.452;2022-10-22T08:22:04;7.28;;;1.55;;
24685;SDS011;12804;51.176;4.452;2022-10-22T08:24:30;6.93;;;1.40;;
24685;SDS011;12804;51.176;4.452;2022-10-22T08:26:56;10.45;;;1.52;;
24685;SDS011;12804;51.176;4.452;2022-10-22T08:29:22;11.30;;;1.65;;
24685;SDS011;12804;51.176;4.452;2022-10-22T08:31:48;9.10;;;1.65;;
24685;SDS011;12804;51.176;4.452;2022-10-22T08:34:14;8.60;;;1.20;;
24685;SDS011;12804;51.176;4.452;2022-10-22T08:36:41;11.90;;;1.65;;
24685;SDS011;12804;51.176;4.452;2022-10-22T08:39:07;8.85;;;1.50;;
24685;SDS011;12804;51.176;4.452;2022-10-22T08:41:35;6.25;;;1.27;;
24685;SDS011;12804;51.176;4.452;2022-10-22T08:44:36;10.13;;;1.70;;
24685;SDS011;12804;51.176;4.452;2022-10-22T08:47:37;7.20;;;1.25;;
24685;SDS011;12804;51.176;4.452;2022-10-22T08:50:17;10.10;;;1.98;;
24685;SDS011;12804;51.176;4.452;2022-10-22T08:52:49;7.78;;;1.48;;
24685;SDS011;12804;51.176;4.452;2022-10-22T08:55:17;9.80;;;2.03;;
24685;SDS011;12804;51.176;4.452;2022-10-22T09:05:29;10.02;;;1.65;;
24685;SDS011;12804;51.176;4.452;2022-10-22T09:08:16;7.10;;;1.50;;
24685;SDS011;12804;51.176;4.452;2022-10-22T09:10:45;10.38;;;1.92;;
24685;SDS011;12804;51.176;4.452;2022-10-22T09:13:21;11.10;;;1.83;;
24685;SDS011;12804;51.176;4.452;2022-10-22T09:15:49;7.13;;;1.60;;
24685;SDS011;12804;51.176;4.452;2022-10-22T09:18:32;8.95;;;1.40;;
24685;SDS011;12804;51.176;4.452;2022-10-22T09:21:11;5.93;;;1.42;;
24685;SDS011;12804;51.176;4.452;2022-10-22T09:23:57;7.40;;;1.50;;
24685;SDS011;12804;51.176;4.452;2022-10-22T09:26:30;7.88;;;1.60;;
24685;SDS011;12804;51.176;4.452;2022-10-22T09:28:59;7.15;;;1.60;;
24685;SDS011;12804;51.176;4.452;2022-10-22T09:31:25;9.30;;;1.73;;
24685;SDS011;12804;51.176;4.452;2022-10-22T09:33:54;8.38;;;1.67;;
24685;SDS011;12804;51.176;4.452;2022-10-22T09:36:21;9.02;;;1.73;;
24685;SDS011;12804;51.176;4.452;2022-10-22T09:38:48;10.13;;;1.70;;
24685;SDS011;12804;51.176;4.452;2022-10-22T09:41:16;7.72;;;1.60;;
24685;SDS011;12804;51.176;4.452;2022-10-22T09:43:46;7.88;;;1.75;;
24685;SDS011;12804;51.176;4.452;2022-10-22T09:46:15;7.20;;;1.63;;
24685;SDS011;12804;51.176;4.452;2022-10-22T09:48:43;6.70;;;1.45;;
24685;SDS011;12804;51.176;4.452;2022-10-22T09:51:41;10.55;;;1.58;;
24685;SDS011;12804;51.176;4.452;2022-10-22T09:54:17;12.23;;;1.98;;
24685;SDS011;12804;51.176;4.452;2022-10-22T09:59:27;5.88;;;1.10;;
24685;SDS011;12804;51.176;4.452;2022-10-22T10:01:59;6.00;;;1.50;;
24685;SDS011;12804;51.176;4.452;2022-10-22T10:04:27;7.63;;;1.65;;
24685;SDS011;12804;51.176;4.452;2022-10-22T10:06:57;6.40;;;1.50;;
24685;SDS011;12804;51.176;4.452;2022-10-22T10:09:24;5.30;;;1.38;;
24685;SDS011;12804;51.176;4.452;2022-10-22T10:11:54;5.72;;;1.25;;
24685;SDS011;12804;51.176;4.452;2022-10-22T10:14:36;6.18;;;1.20;;
24685;SDS011;12804;51.176;4.452;2022-10-22T10:20:15;7.40;;;1.30;;
24685;SDS011;12804;51.176;4.452;2022-10-22T10:23:48;7.22;;;1.30;;
24685;SDS011;12804;51.176;4.452;2022-10-22T10:34:45;7.07;;;1.45;;
24685;SDS011;12804;51.176;4.452;2022-10-22T10:37:34;6.22;;;1.27;;
24685;SDS011;12804;51.176;4.452;2022-10-22T10:45:18;6.53;;;1.40;;
24685;SDS011;12804;51.176;4.452;2022-10-22T10:50:23;5.45;;;1.40;;
24685;SDS011;12804;51.176;4.452;2022-10-22T10:55:47;8.05;;;1.58;;
24685;SDS011;12804;51.176;4.452;2022-10-22T10:58:30;7.63;;;1.20;;
24685;SDS011;12804;51.176;4.452;2022-10-22T11:01:01;7.65;;;1.58;;
24685;SDS011;12804;51.176;4.452;2022-10-22T11:06:41;7.63;;;1.48;;
24685;SDS011;12804;51.176;4.452;2022-10-22T11:09:13;7.13;;;1.50;;
24685;SDS011;12804;51.176;4.452;2022-10-22T11:11:55;5.28;;;1.35;;
24685;SDS011;12804;51.176;4.452;2022-10-22T11:14:33;8.55;;;1.55;;
24685;SDS011;12804;51.176;4.452;2022-10-22T11:17:05;7.43;;;1.50;;
24685;SDS011;12804;51.176;4.452;2022-10-22T11:19:40;11.70;;;1.70;;
24685;SDS011;12804;51.176;4.452;2022-10-22T11:22:29;6.00;;;1.48;;
24685;SDS011;12804;51.176;4.452;2022-10-22T11:25:00;6.70;;;1.75;;
24685;SDS011;12804;51.176;4.452;2022-10-22T11:30:17;5.00;;;1.20;;
24685;SDS011;12804;51.176;4.452;2022-10-22T11:32:52;7.05;;;1.42;;
24685;SDS011;12804;51.176;4.452;2022-10-22T11:35:27;7.35;;;1.38;;
24685;SDS011;12804;51.176;4.452;2022-10-22T11:38:02;7.13;;;1.80;;
24685;SDS011;12804;51.176;4.452;2022-10-22T11:40:46;4.63;;;1.48;;
24685;SDS011;12804;51.176;4.452;2022-10-22T11:43:26;5.35;;;1.30;;
24685;SDS011;12804;51.176;4.452;2022-10-22T11:48:38;7.40;;;1.80;;
24685;SDS011;12804;51.176;4.452;2022-10-22T11:51:26;7.60;;;1.48;;
24685;SDS011;12804;51.176;4.452;2022-10-22T11:53:57;6.40;;;1.20;;
24685;SDS011;12804;51.176;4.452;2022-10-22T11:56:28;6.13;;;1.38;;
24685;SDS011;12804;51.176;4.452;2022-10-22T11:59:02;7.50;;;1.42;;
24685;SDS011;12804;51.176;4.452;2022-10-22T12:01:43;6.47;;;1.48;;
24685;SDS011;12804;51.176;4.452;2022-10-22T12:06:50;8.48;;;1.83;;
24685;SDS011;12804;51.176;4.452;2022-10-22T12:09:22;8.90;;;1.63;;
24685;SDS011;12804;51.176;4.452;2022-10-22T12:11:50;7.63;;;1.58;;
24685;SDS011;12804;51.176;4.452;2022-10-22T12:14:23;4.43;;;1.27;;
24685;SDS011;12804;51.176;4.452;2022-10-22T12:17:09;6.78;;;1.70;;
24685;SDS011;12804;51.176;4.452;2022-10-22T12:19:39;7.38;;;1.58;;
24685;SDS011;12804;51.176;4.452;2022-10-22T12:22:21;10.05;;;1.48;;
24685;SDS011;12804;51.176;4.452;2022-10-22T12:24:51;9.88;;;1.83;;
24685;SDS011;12804;51.176;4.452;2022-10-22T12:27:20;6.75;;;1.10;;
24685;SDS011;12804;51.176;4.452;2022-10-22T12:29:46;7.55;;;1.48;;
24685;SDS011;12804;51.176;4.452;2022-10-22T12:32:13;6.18;;;1.30;;
24685;SDS011;12804;51.176;4.452;2022-10-22T12:34:44;9.00;;;1.58;;
24685;SDS011;12804;51.176;4.452;2022-10-22T12:37:12;4.88;;;1.40;;
24685;SDS011;12804;51.176;4.452;2022-10-22T12:39:39;8.30;;;1.20;;
24685;SDS011;12804;51.176;4.452;2022-10-22T12:42:06;7.72;;;1.30;;
24685;SDS011;12804;51.176;4.452;2022-10-22T12:44:36;6.40;;;1.33;;
24685;SDS011;12804;51.176;4.452;2022-10-22T12:47:02;7.75;;;1.58;;
24685;SDS011;12804;51.176;4.452;2022-10-22T12:49:40;6.40;;;1.55;;
24685;SDS011;12804;51.176;4.452;2022-10-22T12:52:12;5.93;;;1.38;;
24685;SDS011;12804;51.176;4.452;2022-10-22T12:54:46;6.20;;;1.75;;
24685;SDS011;12804;51.176;4.452;2022-10-22T12:57:17;4.68;;;1.75;;
24685;SDS011;12804;51.176;4.452;2022-10-22T12:59:48;5.13;;;1.30;;
24685;SDS011;12804;51.176;4.452;2022-10-22T13:02:23;4.90;;;1.60;;
24685;SDS011;12804;51.176;4.452;2022-10-22T13:07:38;6.35;;;1.63;;
24685;SDS011;12804;51.176;4.452;2022-10-22T13:12:55;8.10;;;1.60;;
24685;SDS011;12804;51.176;4.452;2022-10-22T13:18:04;7.47;;;1.88;;
24685;SDS011;12804;51.176;4.452;2022-10-22T13:20:57;6.70;;;1.92;;
24685;SDS011;12804;51.176;4.452;2022-10-22T13:23:31;6.75;;;1.50;;
24685;SDS011;12804;51.176;4.452;2022-10-22T13:25:59;5.90;;;1.58;;
24685;SDS011;12804;51.176;4.452;2022-10-22T13:28:27;6.47;;;2.00;;
24685;SDS011;12804;51.176;4.452;2022-10-22T13:30:55;4.45;;;1.52;;
24685;SDS011;12804;51.176;4.452;2022-10-22T13:33:24;5.97;;;1.60;;
24685;SDS011;12804;51.176;4.452;2022-10-22T13:35:56;4.80;;;1.65;;
24685;SDS011;12804;51.176;4.452;2022-10-22T13:38:23;6.05;;;1.60;;
24685;SDS011;12804;51.176;4.452;2022-10-22T13:40:50;5.47;;;1.70;;
24685;SDS011;12804;51.176;4.452;2022-10-22T13:43:16;5.20;;;1.65;;
24685;SDS011;12804;51.176;4.452;2022-10-22T13:45:43;5.75;;;1.80;;
24685;SDS011;12804;51.176;4.452;2022-10-22T13:48:14;5.88;;;1.60;;
24685;SDS011;12804;51.176;4.452;2022-10-22T13:50:41;4.13;;;1.27;;
24685;SDS011;12804;51.176;4.452;2022-10-22T13:53:25;4.75;;;1.52;;
24685;SDS011;12804;51.176;4.452;2022-10-22T13:55:53;8.68;;;1.38;;
24685;SDS011;12804;51.176;4.452;2022-10-22T13:58:20;3.72;;;1.20;;
24685;SDS011;12804;51.176;4.452;2022-10-22T14:00:54;4.50;;;1.30;;
24685;SDS011;12804;51.176;4.452;2022-10-22T14:03:31;4.80;;;1.07;;
24685;SDS011;12804;51.176;4.452;2022-10-22T14:05:58;4.43;;;1.27;;
24685;SDS011;12804;51.176;4.452;2022-10-22T14:08:24;5.80;;;1.33;;
24685;SDS011;12804;51.176;4.452;2022-10-22T14:10:51;5.72;;;1.27;;
24685;SDS011;12804;51.176;4.452;2022-10-22T14:13:18;4.30;;;1.00;;
24685;SDS011;12804;51.176;4.452;2022-10-22T14:15:45;6.50;;;1.20;;
24685;SDS011;12804;51.176;4.452;2022-10-22T14:18:15;3.78;;;1.00;;
24685;SDS011;12804;51.176;4.452;2022-10-22T14:20:50;7.15;;;1.20;;
24685;SDS011;12804;51.176;4.452;2022-10-22T14:23:21;3.40;;;1.10;;
24685;SDS011;12804;51.176;4.452;2022-10-22T14:25:49;3.58;;;1.05;;
24685;SDS011;12804;51.176;4.452;2022-10-22T14:28:17;6.70;;;1.42;;
24685;SDS011;12804;51.176;4.452;2022-10-22T14:30:43;3.25;;;1.05;;
24685;SDS011;12804;51.176;4.452;2022-10-22T14:33:14;4.45;;;1.20;;
24685;SDS011;12804;51.176;4.452;2022-10-22T14:35:42;5.60;;;1.00;;
24685;SDS011;12804;51.176;4.452;2022-10-22T14:38:08;6.10;;;1.27;;
24685;SDS011;12804;51.176;4.452;2022-10-22T14:40:34;5.70;;;1.20;;
24685;SDS011;12804;51.176;4.452;2022-10-22T14:43:03;4.03;;;0.93;;
24685;SDS011;12804;51.176;4.452;2022-10-22T14:45:29;2.92;;;0.77;;
24685;SDS011;12804;51.176;4.452;2022-10-22T14:47:55;7.28;;;1.10;;
24685;SDS011;12804;51.176;4.452;2022-10-22T14:50:21;5.70;;;1.00;;
24685;SDS011;12804;51.176;4.452;2022-10-22T14:52:49;4.07;;;1.38;;
24685;SDS011;12804;51.176;4.452;2022-10-22T14:55:16;5.72;;;1.00;;
24685;SDS011;12804;51.176;4.452;2022-10-22T14:57:42;3.33;;;0.93;;
24685;SDS011;12804;51.176;4.452;2022-10-22T15:00:10;4.43;;;1.00;;
24685;SDS011;12804;51.176;4.452;2022-10-22T15:02:38;5.47;;;1.50;;
24685;SDS011;12804;51.176;4.452;2022-10-22T15:05:04;5.53;;;1.10;;
24685;SDS011;12804;51.176;4.452;2022-10-22T15:07:31;4.75;;;1.17;;
24685;SDS011;12804;51.176;4.452;2022-10-22T15:09:56;6.28;;;1.20;;
24685;SDS011;12804;51.176;4.452;2022-10-22T15:12:22;3.42;;;1.10;;
24685;SDS011;12804;51.176;4.452;2022-10-22T15:14:48;4.20;;;1.10;;
24685;SDS011;12804;51.176;4.452;2022-10-22T15:17:15;3.75;;;1.30;;
24685;SDS011;12804;51.176;4.452;2022-10-22T15:19:42;4.70;;;1.30;;
24685;SDS011;12804;51.176;4.452;2022-10-22T15:22:08;4.70;;;1.05;;
24685;SDS011;12804;51.176;4.452;2022-10-22T15:24:38;5.15;;;1.00;;
24685;SDS011;12804;51.176;4.452;2022-10-22T15:27:04;2.70;;;0.98;;
24685;SDS011;12804;51.176;4.452;2022-10-22T15:29:31;5.32;;;1.33;;
24685;SDS011;12804;51.176;4.452;2022-10-22T15:31:57;4.70;;;0.88;;
24685;SDS011;12804;51.176;4.452;2022-10-22T15:34:33;6.82;;;1.33;;
24685;SDS011;12804;51.176;4.452;2022-10-22T15:37:01;4.43;;;1.20;;
24685;SDS011;12804;51.176;4.452;2022-10-22T15:39:29;3.05;;;0.90;;
24685;SDS011;12804;51.176;4.452;2022-10-22T15:41:56;5.32;;;0.95;;
24685;SDS011;12804;51.176;4.452;2022-10-22T15:44:28;3.42;;;0.80;;
24685;SDS011;12804;51.176;4.452;2022-10-22T15:46:55;5.38;;;1.05;;
24685;SDS011;12804;51.176;4.452;2022-10-22T15:49:24;6.22;;;1.15;;
24685;SDS011;12804;51.176;4.452;2022-10-22T15:51:52;5.30;;;1.13;;
24685;SDS011;12804;51.176;4.452;2022-10-22T15:54:26;3.92;;;1.02;;
24685;SDS011;12804;51.176;4.452;2022-10-22T15:56:53;4.93;;;1.38;;
24685;SDS011;12804;51.176;4.452;2022-10-22T15:59:19;2.95;;;1.20;;
24685;SDS011;12804;51.176;4.452;2022-10-22T16:01:46;4.47;;;1.05;;
24685;SDS011;12804;51.176;4.452;2022-10-22T16:04:11;5.43;;;1.10;;
24685;SDS011;12804;51.176;4.452;2022-10-22T16:06:42;5.40;;;1.15;;
24685;SDS011;12804;51.176;4.452;2022-10-22T16:09:10;6.15;;;1.30;;
24685;SDS011;12804;51.176;4.452;2022-10-22T16:11:43;3.78;;;1.40;;
24685;SDS011;12804;51.176;4.452;2022-10-22T16:14:10;6.82;;;1.52;;
24685;SDS011;12804;51.176;4.452;2022-10-22T16:16:40;6.35;;;1.40;;